Time;durP1;ratioP1;P1;durP2;ratioP2;P2;SDS_P1;SDS_P2;PMS_P1;PMS_P2;Temp;Humidity;BMP_temperature;BMP_pressure;BME280_temperature;BME280_humidity;BME280_pressure;Samples;Min_cycle;Max_cycle;Signal;HPM_P1;HPM_P2
2023/03/05 00:01:24;;;;;;;0.98;0.22;;;;;;;1.03;54.58;101917.16;4993186;28;20303;-71
2023/03/05 00:03:52;;;;;;;3.22;0.28;;;;;;;1.17;53.94;101926.81;4995685;28;20530;-71
2023/03/05 00:06:21;;;;;;;1.45;0.10;;;;;;;1.18;53.96;101918.25;4998594;28;20045;-70
2023/03/05 00:08:48;;;;;;;0.90;0.00;;;;;;;1.12;54.35;101913.88;4996446;28;20072;-71
2023/03/05 00:11:14;;;;;;;0.77;0.10;;;;;;;1.14;53.93;101908.75;4995935;28;20224;-70
2023/03/05 00:13:40;;;;;;;4.45;0.20;;;;;;;1.04;54.09;101908.59;4993633;28;20037;-71
2023/03/05 00:16:08;;;;;;;1.00;0.10;;;;;;;0.95;54.33;101908.47;5003118;28;20029;-71
2023/03/05 00:18:34;;;;;;;1.63;0.00;;;;;;;1.09;54.20;101899.25;4994346;28;20029;-71
2023/03/05 00:20:59;;;;;;;3.35;0.10;;;;;;;1.01;54.34;101899.94;4993888;28;20402;-71
2023/03/05 00:23:25;;;;;;;0.70;0.30;;;;;;;0.84;54.39;101891.97;5010417;28;20133;-71
2023/03/05 00:25:51;;;;;;;3.72;0.20;;;;;;;0.97;54.08;101887.88;4993364;28;20030;-71
2023/03/05 00:28:16;;;;;;;1.85;0.13;;;;;;;0.93;53.71;101888.69;4996762;28;20044;-71
2023/03/05 00:30:42;;;;;;;3.30;0.00;;;;;;;0.78;54.15;101887.56;4990669;28;20716;-71
2023/03/05 00:33:11;;;;;;;1.10;0.00;;;;;;;0.90;54.23;101881.75;4995543;28;20033;-70
2023/03/05 00:35:41;;;;;;;4.40;0.10;;;;;;;0.94;54.64;101875.81;4994121;28;20132;-71
2023/03/05 00:38:09;;;;;;;3.83;0.25;;;;;;;1.09;53.97;101878.63;4997688;28;20415;-76
2023/03/05 00:40:39;;;;;;;0.80;0.17;;;;;;;1.01;54.27;101893.09;5012914;28;20055;-73
2023/03/05 00:43:08;;;;;;;6.03;0.22;;;;;;;0.36;56.07;101888.53;5016628;28;20025;-73
2023/03/05 00:45:34;;;;;;;1.13;0.47;;;;;;;0.20;55.47;101882.25;5010742;28;20051;-72
2023/03/05 00:47:59;;;;;;;0.88;0.00;;;;;;;0.34;54.67;101879.06;5001356;28;20406;-68
2023/03/05 00:50:25;;;;;;;2.15;0.08;;;;;;;0.50;53.61;101875.91;5019595;28;20041;-69
2023/03/05 00:52:51;;;;;;;1.20;0.00;;;;;;;0.23;53.71;101872.03;5011278;28;20052;-74
2023/03/05 00:55:17;;;;;;;3.58;0.10;;;;;;;0.29;53.52;101871.25;5009955;28;20068;-67
2023/03/05 00:57:42;;;;;;;0.10;0.00;;;;;;;0.33;53.11;101867.06;5014619;28;20124;-66
2023/03/05 01:00:08;;;;;;;0.50;0.00;;;;;;;0.27;52.33;101860.94;5018443;28;20544;-67
2023/03/05 01:02:34;;;;;;;0.38;0.08;;;;;;;0.18;52.47;101853.06;5014451;28;21918;-68
2023/03/05 01:04:59;;;;;;;0.10;0.00;;;;;;;0.10;52.67;101849.50;5026128;28;20632;-68
2023/03/05 01:07:27;;;;;;;1.98;0.10;;;;;;;0.04;53.07;101850.22;5021175;28;20038;-68
2023/03/05 01:09:57;;;;;;;0.40;0.00;;;;;;;-0.27;54.27;101847.88;5017021;28;20047;-68
2023/03/05 01:12:23;;;;;;;2.00;0.00;;;;;;;0.02;53.51;101843.31;5013396;28;20037;-67
2023/03/05 01:14:48;;;;;;;8.30;0.57;;;;;;;-0.02;53.97;101832.09;5022811;28;20277;-70
2023/03/05 01:17:14;;;;;;;1.80;0.05;;;;;;;0.26;53.37;101832.66;5022414;28;20037;-70
2023/03/05 01:19:39;;;;;;;9.73;0.15;;;;;;;0.46;53.15;101831.28;5023258;28;20048;-69
2023/03/05 01:22:05;;;;;;;3.30;0.35;;;;;;;0.46;53.19;101822.72;5019127;28;20033;-71
2023/03/05 01:24:33;;;;;;;0.25;0.00;;;;;;;0.64;53.08;101817.00;5018074;28;20154;-68
2023/03/05 01:26:59;;;;;;;2.17;0.00;;;;;;;0.66;52.88;101813.63;5016831;28;20056;-68
2023/03/05 01:29:27;;;;;;;2.10;0.10;;;;;;;0.67;52.85;101814.47;5014011;28;20046;-67
2023/03/05 01:31:52;;;;;;;4.75;0.20;;;;;;;0.73;52.46;101818.88;5012986;28;20033;-67
2023/03/05 01:34:18;;;;;;;1.67;0.10;;;;;;;0.72;52.74;101819.69;4993809;28;20096;-69
2023/03/05 01:36:44;;;;;;;2.85;0.10;;;;;;;0.59;53.63;101818.63;5013827;28;20113;-74
2023/03/05 01:39:09;;;;;;;0.95;0.03;;;;;;;0.73;53.37;101808.56;5020985;28;20123;-72
2023/03/05 01:41:35;;;;;;;2.67;0.22;;;;;;;0.85;53.08;101806.19;5015673;28;20029;-69
2023/03/05 01:44:04;;;;;;;2.63;0.25;;;;;;;0.93;52.82;101804.59;5019390;28;20048;-69
2023/03/05 01:46:33;;;;;;;4.07;0.10;;;;;;;0.98;52.90;101800.38;5022995;28;20088;-70
2023/03/05 01:49:14;;;;;;;6.05;0.10;;;;;;;0.99;53.02;101799.53;5018426;28;20535;-71
2023/03/05 01:52:18;;;;;;;4.15;0.28;;;;;;;0.25;55.03;101806.03;5014251;28;20202;-71
2023/03/05 01:54:55;;;;;;;7.25;0.10;;;;;;;0.15;55.07;101808.44;5004507;28;20626;-71
2023/03/05 01:57:29;;;;;;;2.15;0.10;;;;;;;0.17;55.41;101802.50;5017040;28;20762;-71
2023/03/05 02:00:01;;;;;;;1.00;0.10;;;;;;;0.31;55.08;101792.44;4994292;28;20045;-71
2023/03/05 02:02:26;;;;;;;4.03;0.40;;;;;;;0.15;55.32;101793.88;4997763;28;20040;-71
2023/03/05 02:04:58;;;;;;;0.43;0.00;;;;;;;0.33;55.06;101787.34;4994521;28;20187;-71
2023/03/05 02:07:24;;;;;;;7.25;0.10;;;;;;;0.02;56.28;101785.06;4999243;28;20050;-72
2023/03/05 02:09:50;;;;;;;0.55;0.00;;;;;;;0.26;55.65;101783.78;5005417;28;20045;-74
2023/03/05 02:12:16;;;;;;;1.45;0.03;;;;;;;0.56;54.82;101788.56;5021386;28;20040;-75
2023/03/05 02:14:47;;;;;;;1.30;0.20;;;;;;;0.26;55.19;101782.06;5030347;28;20037;-72
2023/03/05 02:17:16;;;;;;;5.57;0.10;;;;;;;0.47;55.17;101773.84;5031107;28;20047;-71
2023/03/05 02:19:54;;;;;;;0.80;0.08;;;;;;;0.39;55.59;101774.56;5011732;28;20438;-72
2023/03/05 02:22:23;;;;;;;0.32;0.00;;;;;;;0.48;55.10;101764.44;5015405;28;20038;-72
2023/03/05 02:24:51;;;;;;;1.05;0.10;;;;;;;0.56;54.83;101759.41;5005455;28;20041;-71
2023/03/05 02:27:21;;;;;;;0.08;0.08;;;;;;;0.46;55.13;101750.69;5012985;28;20126;-71
2023/03/05 02:29:47;;;;;;;1.65;0.05;;;;;;;0.56;54.73;101761.97;5015244;28;20044;-71
2023/03/05 02:32:14;;;;;;;0.65;0.15;;;;;;;0.35;55.00;101763.38;5025252;28;20061;-70
2023/03/05 02:34:40;;;;;;;0.47;0.00;;;;;;;0.32;55.07;101752.16;5009661;28;20124;-72
2023/03/05 02:37:07;;;;;;;2.45;0.00;;;;;;;0.24;55.63;101755.47;4989273;28;20510;-71
2023/03/05 02:39:36;;;;;;;0.35;0.00;;;;;;;0.31;54.92;101760.72;4988551;28;20119;-70
2023/03/05 02:42:02;;;;;;;0.47;0.00;;;;;;;0.27;55.12;101750.38;5002125;28;20040;-72
2023/03/05 02:44:27;;;;;;;4.55;0.20;;;;;;;0.22;55.87;101746.84;5002569;28;20053;-71
2023/03/05 02:46:53;;;;;;;2.58;0.35;;;;;;;0.19;55.77;101741.69;5021819;28;20106;-71
2023/03/05 02:49:19;;;;;;;4.57;0.13;;;;;;;0.39;55.41;101738.53;5015338;28;20026;-71
2023/03/05 02:51:44;;;;;;;6.65;0.20;;;;;;;0.36;55.34;101738.50;5019075;28;20272;-71
2023/03/05 02:54:10;;;;;;;2.50;0.10;;;;;;;0.37;55.06;101730.84;5022565;28;20071;-70
2023/03/05 02:56:37;;;;;;;2.63;0.08;;;;;;;0.16;55.68;101726.19;5001923;28;20603;-71
2023/03/05 02:59:03;;;;;;;0.10;0.00;;;;;;;0.04;55.92;101720.84;5022414;28;20569;-71
2023/03/05 03:01:28;;;;;;;0.20;0.00;;;;;;;0.20;55.34;101711.69;5022488;28;20045;-70
2023/03/05 03:03:59;;;;;;;1.75;0.10;;;;;;;0.11;55.09;101712.41;5016145;28;20029;-72
2023/03/05 03:06:27;;;;;;;2.30;0.10;;;;;;;-0.19;55.79;101707.56;5021339;28;20037;-70
2023/03/05 03:08:52;;;;;;;0.98;0.15;;;;;;;-0.13;55.55;101703.41;5013966;28;20112;-69
2023/03/05 03:11:18;;;;;;;5.57;0.15;;;;;;;-0.16;55.41;101703.38;5015957;28;20872;-72
2023/03/05 03:13:43;;;;;;;1.75;0.00;;;;;;;-0.15;55.41;101699.97;5002060;28;20038;-74
2023/03/05 03:16:12;;;;;;;4.55;0.10;;;;;;;-0.22;55.41;101694.69;5009095;28;20451;-74
2023/03/05 03:18:38;;;;;;;0.05;0.00;;;;;;;-0.18;55.24;101686.19;5000381;28;20048;-74
2023/03/05 03:21:05;;;;;;;0.52;0.00;;;;;;;-0.20;55.50;101691.28;5015102;28;20052;-72
2023/03/05 03:23:30;;;;;;;4.13;0.10;;;;;;;-0.20;55.26;101686.16;5017413;28;20048;-74
2023/03/05 03:25:58;;;;;;;2.60;0.10;;;;;;;-0.23;55.80;101680.97;5017860;28;20152;-74
2023/03/05 03:28:25;;;;;;;1.52;0.17;;;;;;;-0.06;55.51;101677.81;5015348;28;20067;-74
2023/03/05 03:30:50;;;;;;;4.47;0.10;;;;;;;-0.13;56.39;101688.00;5001197;28;20033;-74
2023/03/05 03:33:17;;;;;;;0.43;0.22;;;;;;;-0.67;57.56;101708.38;5014383;28;20056;-70
2023/03/05 03:35:44;;;;;;;3.13;0.10;;;;;;;-0.90;58.21;101715.63;5003355;28;20477;-71
2023/03/05 03:38:11;;;;;;;2.50;0.00;;;;;;;-1.04;58.11;101708.50;5021202;28;20132;-70
2023/03/05 03:40:37;;;;;;;1.08;0.00;;;;;;;-0.90;57.93;101701.09;5017141;28;20040;-70
2023/03/05 03:43:03;;;;;;;6.60;0.10;;;;;;;-0.51;56.79;101697.56;5014294;28;20203;-70
2023/03/05 03:45:28;;;;;;;0.35;0.10;;;;;;;-0.38;56.59;101686.69;5015621;28;20285;-69
2023/03/05 03:47:53;;;;;;;1.45;0.08;;;;;;;-0.27;56.29;101679.19;5015137;28;20029;-73
2023/03/05 03:50:20;;;;;;;5.05;0.10;;;;;;;-0.20;56.12;101681.00;5015249;28;20397;-73
2023/03/05 03:52:46;;;;;;;1.23;0.00;;;;;;;-0.08;55.73;101677.81;5015433;28;20037;-73
2023/03/05 03:55:11;;;;;;;3.65;0.20;;;;;;;-0.25;56.44;101677.50;4998854;28;20193;-67
2023/03/05 03:57:37;;;;;;;2.08;0.15;;;;;;;-0.15;56.25;101679.41;5012245;28;20029;-68
2023/03/05 04:00:05;;;;;;;0.15;0.00;;;;;;;-0.03;55.51;101672.75;5013844;28;20069;-68
2023/03/05 04:02:39;;;;;;;5.55;0.10;;;;;;;-0.07;55.60;101671.81;5012971;28;20041;-67
2023/03/05 04:05:08;;;;;;;10.57;0.55;;;;;;;0.01;55.88;101665.13;5012226;28;20444;-69
2023/03/05 04:07:34;;;;;;;5.15;0.20;;;;;;;-0.01;56.11;101665.94;5012652;28;20134;-69
2023/03/05 04:09:59;;;;;;;4.85;0.05;;;;;;;-0.32;57.13;101667.97;5015466;28;20857;-69
2023/03/05 04:12:24;;;;;;;1.95;0.05;;;;;;;-0.22;56.91;101651.84;5014214;28;20072;-69
2023/03/05 04:14:50;;;;;;;2.17;0.10;;;;;;;-0.36;57.01;101650.75;5013356;28;20048;-68
2023/03/05 04:17:15;;;;;;;2.95;0.10;;;;;;;-0.25;56.32;101651.81;5019596;28;20037;-67
2023/03/05 04:19:41;;;;;;;0.77;0.00;;;;;;;-0.29;56.36;101639.75;5015574;28;20301;-68
2023/03/05 04:22:12;;;;;;;2.88;0.00;;;;;;;-0.29;56.28;101642.31;5014732;28;20033;-67
2023/03/05 04:24:37;;;;;;;0.80;0.10;;;;;;;-0.22;55.65;101638.16;4989865;28;20045;-66
2023/03/05 04:27:04;;;;;;;3.05;0.20;;;;;;;-0.29;55.70;101641.47;5022984;28;20033;-68
2023/03/05 04:29:30;;;;;;;2.80;0.03;;;;;;;-0.36;55.72;101635.34;5017219;28;20061;-67
2023/03/05 04:31:55;;;;;;;4.85;0.00;;;;;;;-0.52;56.09;101631.66;5018422;28;20127;-67
2023/03/05 04:34:20;;;;;;;5.20;0.00;;;;;;;-0.49;56.21;101626.56;5017551;28;20065;-67
2023/03/05 04:36:55;;;;;;;0.55;0.10;;;;;;;-0.79;56.93;101625.16;5018879;28;20033;-67
2023/03/05 04:39:24;;;;;;;2.63;0.00;;;;;;;-0.61;56.21;101622.06;5015033;28;20056;-68
2023/03/05 04:41:49;;;;;;;0.20;0.00;;;;;;;-0.48;55.99;101623.16;5034113;28;20116;-66
2023/03/05 04:44:16;;;;;;;0.80;0.10;;;;;;;-0.51;56.06;101627.38;5014711;28;20039;-68
2023/03/05 04:46:42;;;;;;;1.95;0.05;;;;;;;-0.50;56.13;101623.94;5018373;28;20036;-69
2023/03/05 04:49:10;;;;;;;1.90;0.10;;;;;;;-0.56;56.56;101617.00;5024522;28;20045;-67
2023/03/05 04:51:35;;;;;;;3.75;0.17;;;;;;;-0.63;56.86;101610.03;5016495;28;20115;-68
2023/03/05 04:54:00;;;;;;;2.13;0.10;;;;;;;-0.53;56.12;101613.63;5020170;28;20038;-72
2023/03/05 04:56:26;;;;;;;4.93;0.15;;;;;;;-0.72;56.36;101608.16;5024103;28;20041;-72
2023/03/05 04:58:52;;;;;;;1.65;0.00;;;;;;;-0.58;56.14;101611.84;5025126;28;20048;-72
2023/03/05 05:01:17;;;;;;;1.40;0.10;;;;;;;-0.52;56.07;101602.53;5015560;28;20040;-70
2023/03/05 05:03:43;;;;;;;2.55;0.03;;;;;;;-0.50;56.05;101609.44;5020346;28;20075;-70
2023/03/05 05:06:10;;;;;;;0.22;0.10;;;;;;;-0.54;55.94;101604.22;5024465;28;20068;-71
2023/03/05 05:08:38;;;;;;;3.92;0.10;;;;;;;-0.60;55.83;101600.69;5024281;28;20037;-70
2023/03/05 05:11:06;;;;;;;3.17;0.20;;;;;;;-0.61;55.89;101604.09;5016174;28;20128;-69
2023/03/05 05:13:32;;;;;;;5.65;0.08;;;;;;;-0.94;56.92;101594.06;5018365;28;20094;-69
2023/03/05 05:15:58;;;;;;;1.40;0.20;;;;;;;-0.71;56.20;101594.47;5013973;28;20643;-69
2023/03/05 05:18:24;;;;;;;4.05;0.10;;;;;;;-0.68;56.00;101596.25;5015072;28;20034;-67
2023/03/05 05:20:49;;;;;;;1.70;0.20;;;;;;;-0.68;55.90;101598.81;5018763;28;20105;-67
2023/03/05 05:23:18;;;;;;;3.00;0.17;;;;;;;-0.70;56.02;101596.22;5016030;28;20028;-67
2023/03/05 05:25:44;;;;;;;2.95;0.10;;;;;;;-0.64;56.61;101605.72;5030186;28;20411;-67
2023/03/05 05:28:10;;;;;;;2.67;0.10;;;;;;;-0.80;56.67;101595.19;5018215;28;20071;-72
2023/03/05 05:30:36;;;;;;;0.50;0.35;;;;;;;-0.62;57.02;101599.78;5017804;28;20029;-75
2023/03/05 05:33:01;;;;;;;3.08;0.00;;;;;;;-0.80;56.87;101597.75;5018195;28;20405;-74
2023/03/05 05:35:27;;;;;;;3.15;0.08;;;;;;;-1.14;58.19;101596.19;5017681;28;20383;-77
2023/03/05 05:37:53;;;;;;;3.92;0.20;;;;;;;-0.93;57.38;101593.22;5018892;28;20089;-74
2023/03/05 05:40:18;;;;;;;2.47;0.08;;;;;;;-0.69;57.07;101587.69;5014414;28;20049;-74
2023/03/05 05:42:44;;;;;;;3.25;0.28;;;;;;;-0.63;56.54;101585.22;5018669;28;20171;-75
2023/03/05 05:45:10;;;;;;;0.68;0.10;;;;;;;-0.51;56.34;101591.41;5013715;28;20037;-77
2023/03/05 05:47:35;;;;;;;4.20;0.28;;;;;;;-0.47;56.22;101593.22;5007486;28;20418;-70
2023/03/05 05:50:04;;;;;;;1.92;0.20;;;;;;;-0.74;56.71;101594.44;5017924;28;20228;-70
2023/03/05 05:52:29;;;;;;;1.85;0.00;;;;;;;-0.71;56.91;101591.91;5013059;28;20088;-70
2023/03/05 05:54:55;;;;;;;5.88;0.73;;;;;;;-0.91;57.48;101590.69;5018996;28;20123;-75
2023/03/05 05:57:20;;;;;;;2.63;0.15;;;;;;;-0.67;56.79;101591.16;5017900;28;20173;-75
2023/03/05 05:59:46;;;;;;;1.30;0.20;;;;;;;-0.57;56.06;101592.19;5009471;28;20537;-76
2023/03/05 06:02:11;;;;;;;10.95;0.55;;;;;;;-0.67;56.53;101588.56;5018367;28;20029;-68
2023/03/05 06:04:38;;;;;;;4.82;0.28;;;;;;;-0.54;55.77;101588.81;5015891;28;20759;-68
2023/03/05 06:07:04;;;;;;;1.25;1.05;;;;;;;-0.69;56.24;101587.69;5022927;28;20821;-77
2023/03/05 06:09:35;;;;;;;3.08;0.30;;;;;;;-0.62;55.91;101589.50;5021313;28;20151;-76
2023/03/05 06:12:03;;;;;;;0.95;0.00;;;;;;;-0.43;55.36;101589.84;5031435;28;20135;-80
2023/03/05 06:14:28;;;;;;;4.20;0.10;;;;;;;-0.45;55.38;101586.41;5032184;28;20049;-75
2023/03/05 06:16:54;;;;;;;1.45;0.00;;;;;;;-0.48;55.16;101582.06;5017295;28;20064;-74
2023/03/05 06:19:19;;;;;;;7.68;0.30;;;;;;;-0.47;55.20;101588.06;4992095;28;22127;-73
2023/03/05 06:21:45;;;;;;;0.30;0.00;;;;;;;-0.15;54.55;101586.03;5018132;28;20029;-72
2023/03/05 06:24:11;;;;;;;1.63;0.20;;;;;;;-0.15;54.50;101579.19;5007874;28;20673;-70
2023/03/05 06:26:36;;;;;;;0.75;0.15;;;;;;;-0.15;54.29;101581.78;5030063;28;20040;-74
2023/03/05 06:29:02;;;;;;;0.90;0.00;;;;;;;-0.06;54.52;101580.16;5003724;28;20164;-72
2023/03/05 06:31:31;;;;;;;0.55;0.08;;;;;;;-0.09;54.37;101590.41;5022179;28;20037;-70
2023/03/05 06:34:04;;;;;;;0.98;0.00;;;;;;;-0.07;54.12;101593.88;5021182;28;20029;-73
2023/03/05 06:36:30;;;;;;;3.38;0.20;;;;;;;-0.00;54.36;101600.81;5017682;28;20056;-77
2023/03/05 06:38:56;;;;;;;1.20;0.13;;;;;;;-0.18;54.83;101597.13;5026388;28;20057;-71
2023/03/05 06:41:29;;;;;;;3.60;0.10;;;;;;;0.12;54.46;101588.16;5012779;28;20682;-71
2023/03/05 06:43:56;;;;;;;0.70;0.30;;;;;;;0.35;53.70;101587.63;5013140;28;20065;-70
2023/03/05 06:46:23;;;;;;;2.75;0.10;;;;;;;0.34;54.08;101591.88;5012452;28;22274;-77
2023/03/05 06:48:50;;;;;;;3.47;0.73;;;;;;;0.40;54.24;101586.00;5022048;28;20033;-70
2023/03/05 06:51:21;;;;;;;7.95;0.50;;;;;;;0.43;53.96;101586.00;5012391;28;20172;-68
2023/03/05 06:53:48;;;;;;;1.90;0.13;;;;;;;0.37;54.33;101581.66;5013889;28;20602;-72
2023/03/05 06:56:18;;;;;;;3.65;0.00;;;;;;;0.57;53.80;101579.38;5013019;28;20032;-69
2023/03/05 06:58:45;;;;;;;2.45;0.25;;;;;;;0.58;53.41;101585.38;5015738;28;20037;-72
2023/03/05 07:01:11;;;;;;;4.75;0.15;;;;;;;0.72;53.74;101586.38;5015279;28;20026;-75
2023/03/05 07:03:37;;;;;;;4.25;0.47;;;;;;;0.80;53.48;101586.50;5015375;28;20132;-75
2023/03/05 07:06:11;;;;;;;2.63;0.80;;;;;;;0.88;53.48;101590.00;5018936;28;20044;-77
2023/03/05 07:08:39;;;;;;;5.47;0.17;;;;;;;0.93;53.15;101587.53;5024090;28;20032;-76
2023/03/05 07:11:12;;;;;;;5.25;0.20;;;;;;;1.01;53.11;101575.56;5026015;28;20040;-78
2023/03/05 07:13:38;;;;;;;0.52;0.03;;;;;;;1.06;53.40;101585.09;5040357;28;20509;-76
2023/03/05 07:16:09;;;;;;;5.07;0.28;;;;;;;1.12;53.07;101584.28;5000260;28;20033;-77
2023/03/05 07:18:35;;;;;;;3.78;0.30;;;;;;;1.06;52.95;101582.50;4993057;28;20982;-72
2023/03/05 07:21:05;;;;;;;2.80;0.00;;;;;;;1.06;53.74;101585.09;4995689;28;20070;-71
2023/03/05 07:23:31;;;;;;;9.23;2.45;;;;;;;1.22;52.97;101577.53;4993014;28;20033;-75
2023/03/05 07:26:00;;;;;;;7.03;1.75;;;;;;;1.20;53.16;101568.94;4986954;28;20045;-78
2023/03/05 07:28:26;;;;;;;1.05;0.13;;;;;;;1.38;53.33;101571.66;4998546;28;20045;-75
2023/03/05 07:30:57;;;;;;;5.10;0.82;;;;;;;1.56;52.95;101568.44;4995679;28;20080;-75
2023/03/05 07:33:26;;;;;;;3.77;0.70;;;;;;;1.70;53.00;101568.53;4996337;28;20620;-75
2023/03/05 07:35:54;;;;;;;2.17;0.22;;;;;;;1.49;52.56;101580.38;4992780;28;20065;-74
2023/03/05 07:38:21;;;;;;;0.70;0.17;;;;;;;0.95;52.86;101584.09;4995002;28;20033;-72
2023/03/05 07:40:46;;;;;;;1.55;0.08;;;;;;;0.24;53.92;101587.47;4994935;28;20044;-70
2023/03/05 07:43:12;;;;;;;4.60;0.10;;;;;;;-0.26;54.56;101596.16;4994173;28;20037;-72
2023/03/05 07:45:40;;;;;;;1.13;0.00;;;;;;;0.25;54.06;101591.75;4982100;28;20038;-67
2023/03/05 07:48:11;;;;;;;3.00;0.10;;;;;;;0.22;54.24;101586.59;4994868;28;20077;-74
2023/03/05 07:50:36;;;;;;;0.57;0.10;;;;;;;0.09;55.35;101595.81;4992258;28;20041;-74
2023/03/05 07:53:02;;;;;;;2.78;0.13;;;;;;;0.16;55.63;101597.63;4997769;28;20037;-74
2023/03/05 07:55:28;;;;;;;6.07;0.40;;;;;;;0.04;55.82;101584.63;4992496;28;20034;-73
2023/03/05 07:57:54;;;;;;;1.15;0.10;;;;;;;0.20;56.08;101588.28;4997946;28;20084;-74
2023/03/05 08:00:20;;;;;;;5.80;0.28;;;;;;;0.40;55.37;101588.56;4991585;28;22039;-75
2023/03/05 08:02:46;;;;;;;2.63;0.10;;;;;;;0.45;55.24;101566.31;4978430;28;20033;-73
2023/03/05 08:05:13;;;;;;;4.22;0.00;;;;;;;0.95;54.19;101560.94;4997624;28;20057;-72
2023/03/05 08:07:39;;;;;;;0.95;0.08;;;;;;;1.18;53.53;101558.59;4992687;28;20057;-73
2023/03/05 08:10:05;;;;;;;1.35;0.10;;;;;;;1.81;52.62;101559.16;4995037;28;20203;-75
2023/03/05 08:12:31;;;;;;;1.38;0.10;;;;;;;2.46;51.66;101559.56;4994900;28;20044;-77
2023/03/05 08:14:56;;;;;;;2.90;0.30;;;;;;;3.06;49.16;101552.88;4997268;28;20034;-75
2023/03/05 08:17:22;;;;;;;2.08;0.00;;;;;;;4.16;46.71;101549.47;4993271;28;20037;-76
2023/03/05 08:19:47;;;;;;;0.25;0.00;;;;;;;4.27;45.86;101549.44;4995697;28;20038;-76
2023/03/05 08:22:19;;;;;;;3.42;0.10;;;;;;;4.66;45.11;101549.31;4992079;28;20037;-67
2023/03/05 08:24:45;;;;;;;1.40;0.10;;;;;;;4.98;43.82;101541.41;4992838;28;20046;-68
2023/03/05 08:27:10;;;;;;;3.30;0.10;;;;;;;5.83;43.24;101531.22;4990359;28;20384;-68
2023/03/05 08:29:36;;;;;;;0.43;0.10;;;;;;;6.61;40.96;101537.31;4991425;28;20072;-67
2023/03/05 08:32:02;;;;;;;1.00;0.10;;;;;;;6.55;40.30;101521.78;4995714;28;20045;-66
2023/03/05 08:34:27;;;;;;;1.70;0.00;;;;;;;7.05;40.12;101520.25;4994041;28;20120;-67
2023/03/05 08:36:53;;;;;;;2.63;0.63;;;;;;;7.32;39.32;101521.56;4998363;28;20041;-66
2023/03/05 08:39:18;;;;;;;5.10;0.13;;;;;;;7.78;39.03;101506.94;4993347;28;20202;-66
2023/03/05 08:41:46;;;;;;;2.28;0.75;;;;;;;9.08;36.17;101511.22;4994808;28;20037;-67
2023/03/05 08:44:19;;;;;;;5.88;0.00;;;;;;;8.71;35.44;101514.66;4994593;28;20885;-67
2023/03/05 08:46:44;;;;;;;2.20;0.30;;;;;;;8.29;36.82;101514.63;4996324;28;20043;-65
2023/03/05 08:49:10;;;;;;;1.92;0.13;;;;;;;8.05;38.25;101513.41;4993839;28;20341;-67
2023/03/05 08:51:35;;;;;;;4.60;0.43;;;;;;;7.33;37.98;101511.16;5007375;28;20034;-66
2023/03/05 08:54:05;;;;;;;3.10;0.13;;;;;;;8.24;37.56;101511.28;4999908;28;20046;-65
2023/03/05 08:56:32;;;;;;;6.55;0.17;;;;;;;9.04;37.40;101506.97;4994663;28;20060;-66
2023/03/05 08:58:58;;;;;;;4.45;0.10;;;;;;;9.26;35.53;101492.53;5012733;28;20041;-67
2023/03/05 09:01:23;;;;;;;4.32;0.10;;;;;;;8.52;37.21;101502.00;4990100;28;21846;-68
2023/03/05 09:03:51;;;;;;;0.82;0.00;;;;;;;8.32;36.35;101492.00;4990832;28;20127;-66
2023/03/05 09:06:19;;;;;;;2.20;0.03;;;;;;;7.09;38.30;101493.34;4991906;28;20305;-67
2023/03/05 09:08:47;;;;;;;0.50;0.03;;;;;;;7.29;39.22;101493.88;4988657;28;20347;-67
2023/03/05 09:11:13;;;;;;;0.75;0.10;;;;;;;8.09;39.50;101482.06;5000696;28;20121;-65
2023/03/05 09:13:39;;;;;;;2.65;0.03;;;;;;;7.67;38.16;101475.94;4990255;28;20036;-64
2023/03/05 09:16:10;;;;;;;1.17;0.10;;;;;;;7.14;39.14;101477.66;4992859;28;20025;-65
2023/03/05 09:18:39;;;;;;;2.45;0.88;;;;;;;5.65;41.99;101483.84;4991167;28;20122;-65
2023/03/05 09:21:08;;;;;;;0.73;0.10;;;;;;;4.58;45.03;101485.44;5017596;28;20589;-66
2023/03/05 09:23:33;;;;;;;0.95;0.15;;;;;;;3.81;46.54;101490.06;5011426;28;20417;-66
2023/03/05 09:25:59;;;;;;;1.98;0.00;;;;;;;3.69;47.68;101484.91;5012213;28;20045;-67
2023/03/05 09:28:24;;;;;;;0.65;0.22;;;;;;;3.15;47.51;101484.88;5010806;28;20035;-68
2023/03/05 09:30:50;;;;;;;0.50;0.10;;;;;;;3.71;46.42;101483.16;5016521;28;20630;-67
2023/03/05 09:33:15;;;;;;;0.75;0.10;;;;;;;4.68;45.84;101490.63;5016172;28;20072;-68
2023/03/05 09:35:44;;;;;;;2.22;0.10;;;;;;;5.36;43.68;101480.66;5020652;28;20140;-65
2023/03/05 09:38:10;;;;;;;0.95;0.10;;;;;;;4.78;44.60;101477.56;5017293;28;20037;-65
2023/03/05 09:41:14;;;;;;;4.45;0.57;;;;;;;4.70;43.95;101481.06;5011395;28;20106;-67
2023/03/05 09:44:12;;;;;;;2.97;0.28;;;;;;;5.37;43.41;101477.16;4999892;28;21110;-68
2023/03/05 09:46:54;;;;;;;2.17;0.10;;;;;;;4.90;43.91;101470.63;5011305;28;20505;-68
2023/03/05 09:49:44;;;;;;;1.08;0.10;;;;;;;5.31;42.64;101462.56;5001094;28;20061;-67
2023/03/05 09:52:35;;;;;;;3.92;0.10;;;;;;;5.65;42.51;101470.88;5013985;28;20044;-68
2023/03/05 09:55:02;;;;;;;1.27;0.15;;;;;;;5.01;43.35;101474.00;5008646;28;20383;-68
2023/03/05 09:57:38;;;;;;;6.90;0.45;;;;;;;4.07;45.99;101476.19;5018352;28;20036;-67
2023/03/05 10:00:24;;;;;;;2.60;0.20;;;;;;;4.22;46.62;101476.13;5002444;28;20485;-68
2023/03/05 10:02:57;;;;;;;4.13;0.20;;;;;;;4.76;46.22;101457.75;4991820;28;20359;-69
2023/03/05 10:06:01;;;;;;;2.40;0.30;;;;;;;5.85;43.24;101449.91;4994205;28;20045;-70
2023/03/05 10:08:40;;;;;;;2.28;0.47;;;;;;;6.13;42.87;101451.31;5000882;28;20098;-67
2023/03/05 10:11:17;;;;;;;0.55;0.10;;;;;;;6.76;41.17;101445.34;5015322;28;20499;-68
2023/03/05 10:13:44;;;;;;;2.33;0.10;;;;;;;6.78;40.54;101444.41;5012274;28;20025;-67
2023/03/05 10:16:41;;;;;;;2.38;0.52;;;;;;;6.83;39.81;101437.41;5015031;28;20128;-66
2023/03/05 10:19:19;;;;;;;4.53;0.28;;;;;;;5.75;40.72;101440.53;5002923;28;20041;-70
2023/03/05 10:22:15;;;;;;;6.80;0.10;;;;;;;5.40;42.49;101444.31;5010554;28;20029;-69
2023/03/05 10:24:52;;;;;;;2.95;0.17;;;;;;;5.02;43.42;101444.66;4999574;28;20119;-68
2023/03/05 10:27:22;;;;;;;6.03;0.10;;;;;;;5.34;43.07;101436.59;5012236;28;20037;-69
2023/03/05 10:30:07;;;;;;;4.90;0.30;;;;;;;5.33;43.12;101434.88;5004573;28;20033;-65
2023/03/05 10:32:54;;;;;;;4.53;0.30;;;;;;;5.11;44.01;101435.94;5011009;28;20375;-70
2023/03/05 10:35:49;;;;;;;4.15;0.15;;;;;;;4.79;45.17;101442.19;5014929;28;20113;-68
2023/03/05 10:38:46;;;;;;;3.33;0.10;;;;;;;4.56;45.71;101430.22;5017623;28;20041;-70
2023/03/05 10:41:26;;;;;;;1.38;0.52;;;;;;;4.42;45.65;101427.72;5009515;28;20033;-70
2023/03/05 10:44:10;;;;;;;1.88;0.10;;;;;;;4.52;44.56;101432.84;5017457;28;20501;-69
2023/03/05 10:46:37;;;;;;;1.80;0.10;;;;;;;4.67;44.48;101431.91;5016981;28;20457;-69
2023/03/05 10:49:27;;;;;;;8.45;0.10;;;;;;;5.33;43.74;101418.47;5009408;28;20325;-70
2023/03/05 10:51:58;;;;;;;0.60;0.10;;;;;;;5.79;42.42;101415.38;5011866;28;20035;-68
2023/03/05 10:54:34;;;;;;;2.72;1.40;;;;;;;6.27;42.20;101413.94;4995517;28;20045;-70
2023/03/05 10:57:24;;;;;;;1.25;0.17;;;;;;;5.67;41.17;101408.63;5013031;28;20039;-70
2023/03/05 11:00:00;;;;;;;5.45;0.25;;;;;;;6.03;41.14;101402.13;5016715;28;20045;-70
2023/03/05 11:02:26;;;;;;;2.15;0.10;;;;;;;6.04;39.77;101400.41;5010779;28;20082;-70
2023/03/05 11:04:53;;;;;;;0.32;0.00;;;;;;;6.21;41.05;101397.56;5017244;28;20049;-68
2023/03/05 11:07:18;;;;;;;8.70;0.10;;;;;;;4.98;40.71;101398.91;5017028;28;20353;-68
2023/03/05 11:09:59;;;;;;;0.75;0.00;;;;;;;5.15;40.50;101385.81;5010733;28;20071;-68
2023/03/05 11:12:30;;;;;;;1.40;0.03;;;;;;;4.49;41.57;101381.97;5017708;28;20033;-67
2023/03/05 11:15:08;;;;;;;2.88;0.20;;;;;;;4.48;42.93;101394.94;5005313;28;20140;-68
2023/03/05 11:17:46;;;;;;;2.80;0.00;;;;;;;4.39;42.90;101383.75;4993957;28;20037;-69
2023/03/05 11:20:29;;;;;;;0.80;0.32;;;;;;;5.24;42.81;101378.81;4991492;28;20107;-67
2023/03/05 11:23:02;;;;;;;5.47;0.10;;;;;;;5.90;42.21;101374.59;4993645;28;20099;-70
2023/03/05 11:25:29;;;;;;;0.88;0.10;;;;;;;5.96;40.69;101379.72;5004980;28;20169;-67
2023/03/05 11:27:57;;;;;;;4.57;0.17;;;;;;;4.83;41.44;101377.41;4999539;28;20033;-68
2023/03/05 11:30:29;;;;;;;0.82;0.20;;;;;;;5.10;41.20;101378.09;4989351;28;20050;-70
2023/03/05 11:33:14;;;;;;;1.52;0.08;;;;;;;4.62;40.97;101372.38;4992358;28;20531;-71
2023/03/05 11:35:42;;;;;;;0.95;0.00;;;;;;;4.10;41.94;101370.97;4991723;28;20737;-70
2023/03/05 11:38:19;;;;;;;1.05;0.20;;;;;;;4.08;43.06;101389.97;5007709;28;20535;-69
2023/03/05 11:40:46;;;;;;;2.00;0.20;;;;;;;3.53;46.35;101386.69;4992021;28;20713;-70